Time;durP1;ratioP1;P1;durP2;ratioP2;P2;SDS_P1;SDS_P2;PMS_P1;PMS_P2;Temp;Humidity;BMP_temperature;BMP_pressure;BME280_temperature;BME280_humidity;BME280_pressure;Samples;Min_cycle;Max_cycle;Signal;HPM_P1;HPM_P2
2022/05/30 00:00:38;;;;;;;6.35;2.10;;;;;;;9.61;100.00;98180.91;4469633;32;20124;-72
2022/05/30 00:03:06;;;;;;;3.70;2.20;;;;;;;9.63;100.00;98192.06;4470082;32;20101;-72
2022/05/30 00:05:34;;;;;;;3.08;2.17;;;;;;;9.64;100.00;98198.09;4469713;32;20124;-72
2022/05/30 00:08:02;;;;;;;4.10;2.10;;;;;;;9.64;100.00;98188.44;4469804;32;20119;-72
2022/05/30 00:10:29;;;;;;;3.72;2.17;;;;;;;9.61;100.00;98193.16;4469859;32;20134;-72
2022/05/30 00:12:56;;;;;;;4.18;2.47;;;;;;;9.60;100.00;98189.72;4469726;32;20684;-72
2022/05/30 00:15:24;;;;;;;4.68;2.53;;;;;;;9.54;100.00;98185.91;4469943;32;20119;-72
2022/05/30 00:17:55;;;;;;;4.03;2.10;;;;;;;9.57;100.00;98183.00;4469673;32;20153;-72
2022/05/30 00:20:23;;;;;;;5.20;2.30;;;;;;;9.53;100.00;98178.19;4469758;32;20100;-72
2022/05/30 00:22:50;;;;;;;6.03;2.65;;;;;;;9.59;100.00;98170.59;4469704;32;20123;-72
2022/05/30 00:25:18;;;;;;;3.42;2.47;;;;;;;9.53;100.00;98165.13;4469671;32;20136;-72
2022/05/30 00:27:45;;;;;;;4.20;2.20;;;;;;;9.55;100.00;98163.19;4469588;32;20115;-72
2022/05/30 00:30:14;;;;;;;3.00;2.45;;;;;;;9.55;100.00;98160.56;4468437;32;20131;-72
2022/05/30 00:32:42;;;;;;;3.42;2.10;;;;;;;9.57;100.00;98159.47;4484990;32;20147;-72
2022/05/30 00:35:11;;;;;;;2.40;2.00;;;;;;;9.56;100.00;98159.59;4485322;31;20088;-72
2022/05/30 00:37:38;;;;;;;2.60;2.20;;;;;;;9.58;100.00;98157.66;4485119;31;20080;-72
2022/05/30 00:40:06;;;;;;;5.25;2.30;;;;;;;9.57;100.00;98150.78;4485478;31;20104;-72
2022/05/30 00:42:34;;;;;;;2.92;2.22;;;;;;;9.53;100.00;98150.25;4485461;31;20097;-72
2022/05/30 00:45:01;;;;;;;5.30;2.70;;;;;;;9.54;100.00;98146.66;4485254;31;20394;-72
2022/05/30 00:47:29;;;;;;;5.22;2.60;;;;;;;9.53;100.00;98137.19;4483752;32;20112;-72
2022/05/30 00:49:56;;;;;;;4.57;2.25;;;;;;;9.55;100.00;98147.50;4485290;31;20138;-72
2022/05/30 00:52:38;;;;;;;4.15;2.30;;;;;;;9.51;100.00;98133.91;4485339;31;20127;-72
2022/05/30 00:55:08;;;;;;;4.32;2.45;;;;;;;9.52;100.00;98139.94;4484813;31;20089;-72
2022/05/30 00:57:36;;;;;;;4.15;2.30;;;;;;;9.57;100.00;98140.34;4484976;31;20080;-72
2022/05/30 01:00:17;;;;;;;6.00;2.47;;;;;;;9.54;100.00;98143.25;4483870;32;20107;-72
2022/05/30 01:02:45;;;;;;;4.60;2.62;;;;;;;9.50;100.00;98142.69;4485234;31;20084;-72
2022/05/30 01:08:02;;;;;;;4.07;2.53;;;;;;;9.47;100.00;98137.75;4484832;31;20088;-72
2022/05/30 01:10:29;;;;;;;3.72;2.80;;;;;;;9.47;100.00;98142.19;4483893;32;20108;-72
2022/05/30 01:12:57;;;;;;;3.72;2.60;;;;;;;9.43;100.00;98140.81;4484968;31;20088;-72
2022/05/30 01:15:30;;;;;;;5.87;2.83;;;;;;;9.48;100.00;98136.81;4485356;31;20096;-72
2022/05/30 01:18:03;;;;;;;4.45;2.70;;;;;;;9.40;100.00;98128.84;4485150;31;20405;-72
2022/05/30 01:20:42;;;;;;;5.65;2.58;;;;;;;9.39;100.00;98122.81;4483761;32;20212;-72
2022/05/30 01:23:21;;;;;;;4.80;2.92;;;;;;;9.44;100.00;98124.16;4484856;31;20152;-72
2022/05/30 01:26:04;;;;;;;4.62;2.42;;;;;;;9.46;100.00;98125.66;4483935;32;20093;-72
2022/05/30 01:28:46;;;;;;;6.55;2.75;;;;;;;9.40;100.00;98114.00;4485012;31;20080;-72
2022/05/30 01:31:14;;;;;;;5.62;2.53;;;;;;;9.46;100.00;98111.75;4483773;32;20112;-72
2022/05/30 01:33:42;;;;;;;3.87;2.92;;;;;;;9.40;100.00;98108.78;4484747;31;20091;-72
2022/05/30 01:36:10;;;;;;;5.50;2.90;;;;;;;9.34;100.00;98106.75;4484742;31;20101;-72
2022/05/30 01:38:37;;;;;;;5.53;3.08;;;;;;;9.37;100.00;98103.00;4484725;31;20105;-72
2022/05/30 01:41:05;;;;;;;6.32;2.90;;;;;;;9.40;100.00;98111.37;4485020;32;20104;-72
2022/05/30 01:43:33;;;;;;;6.03;3.30;;;;;;;9.39;100.00;98111.53;4484848;31;20488;-72
2022/05/30 01:46:07;;;;;;;6.78;3.22;;;;;;;9.37;100.00;98116.91;4484950;31;20412;-72
2022/05/30 01:48:35;;;;;;;4.93;3.17;;;;;;;9.41;100.00;98118.25;4484543;31;20220;-72
2022/05/30 01:51:03;;;;;;;4.55;3.20;;;;;;;9.36;100.00;98115.25;4484813;31;20104;-72
2022/05/30 01:53:31;;;;;;;3.70;2.75;;;;;;;9.38;100.00;98112.50;4483507;32;20433;-72
2022/05/30 01:56:00;;;;;;;5.53;3.15;;;;;;;9.34;100.00;98106.75;4484719;31;20568;-72
2022/05/30 01:58:27;;;;;;;4.43;3.10;;;;;;;9.33;100.00;98105.09;4484510;31;20089;-72
2022/05/30 02:00:57;;;;;;;10.25;4.15;;;;;;;9.36;100.00;98110.03;4484398;32;20112;-72
2022/05/30 02:03:25;;;;;;;4.32;3.17;;;;;;;9.33;100.00;98118.16;4484099;32;20119;-72
2022/05/30 02:05:52;;;;;;;6.45;3.40;;;;;;;9.30;100.00;98112.41;4485066;31;20474;-72
2022/05/30 02:08:21;;;;;;;5.85;3.33;;;;;;;9.28;100.00;98114.31;4486025;32;20464;-72
2022/05/30 02:10:49;;;;;;;4.47;3.58;;;;;;;9.27;100.00;98113.50;4486510;31;20120;-72
2022/05/30 02:13:16;;;;;;;6.68;3.80;;;;;;;9.27;100.00;98110.09;4485272;32;20116;-72
2022/05/30 02:18:30;;;;;;;4.82;3.35;;;;;;;9.31;100.00;98116.66;4486411;31;20088;-72
2022/05/30 02:20:58;;;;;;;9.35;4.30;;;;;;;9.31;100.00;98117.50;4486220;31;20085;-72
2022/05/30 02:23:25;;;;;;;6.60;3.30;;;;;;;9.23;100.00;98117.38;4486118;32;20088;-72
2022/05/30 02:25:53;;;;;;;5.87;3.62;;;;;;;9.25;100.00;98120.69;4485993;32;20108;-72
2022/05/30 02:28:20;;;;;;;6.03;3.67;;;;;;;9.30;100.00;98118.44;4486365;31;20152;-72
2022/05/30 02:30:48;;;;;;;6.75;3.70;;;;;;;9.26;100.00;98117.09;4486362;31;20101;-72
2022/05/30 02:38:49;;;;;;;6.35;3.28;;;;;;;9.31;100.00;98122.72;4486326;31;20506;-72
2022/05/30 02:41:18;;;;;;;7.47;4.12;;;;;;;9.31;100.00;98122.72;4486233;32;20119;-72
2022/05/30 02:43:47;;;;;;;7.28;3.95;;;;;;;9.27;100.00;98129.19;4486024;31;20097;-72
2022/05/30 02:46:14;;;;;;;9.23;4.82;;;;;;;9.27;100.00;98142.25;4486348;31;20096;-72
2022/05/30 02:48:43;;;;;;;8.55;4.65;;;;;;;9.27;100.00;98139.66;4486083;31;20156;-72
2022/05/30 02:51:10;;;;;;;11.43;4.60;;;;;;;9.37;100.00;98150.88;4486187;31;20100;-72
2022/05/30 02:53:38;;;;;;;13.07;4.57;;;;;;;9.35;100.00;98152.81;4485883;31;20092;-72
2022/05/30 02:56:16;;;;;;;11.10;5.32;;;;;;;9.36;100.00;98151.84;4486167;31;20449;-72
2022/05/30 02:58:45;;;;;;;9.00;4.80;;;;;;;9.40;100.00;98155.81;4485731;32;20141;-72
2022/05/30 03:01:13;;;;;;;13.13;5.18;;;;;;;9.46;100.00;98157.03;4486167;31;20229;-72
2022/05/30 03:03:41;;;;;;;13.60;5.30;;;;;;;9.40;100.00;98154.97;4485821;31;20109;-72
2022/05/30 03:06:09;;;;;;;10.40;5.18;;;;;;;9.38;100.00;98167.38;4485859;31;20104;-72
2022/05/30 03:08:37;;;;;;;11.02;5.60;;;;;;;9.39;100.00;98164.63;4485525;31;20609;-72
2022/05/30 03:11:14;;;;;;;9.10;5.53;;;;;;;9.34;100.00;98160.78;4485246;31;20481;-72
2022/05/30 03:13:41;;;;;;;12.90;5.53;;;;;;;9.36;100.00;98157.06;4485028;31;20112;-72
2022/05/30 03:16:09;;;;;;;13.05;5.62;;;;;;;9.37;100.00;98157.88;4485021;31;20525;-72
2022/05/30 03:18:36;;;;;;;11.95;5.30;;;;;;;9.44;100.00;98163.38;4485098;31;20089;-72
2022/05/30 03:21:05;;;;;;;13.18;4.62;;;;;;;9.44;100.00;98166.00;4485004;31;20398;-72
2022/05/30 03:23:33;;;;;;;10.30;4.78;;;;;;;9.53;100.00;98175.59;4485030;31;20438;-72
2022/05/30 03:26:00;;;;;;;8.32;4.30;;;;;;;9.49;100.00;98174.22;4485158;31;20092;-72
2022/05/30 03:28:31;;;;;;;8.45;4.40;;;;;;;9.52;100.00;98182.62;4485028;31;20097;-72
2022/05/30 03:30:59;;;;;;;10.07;4.53;;;;;;;9.44;100.00;98177.28;4485015;31;20115;-72
2022/05/30 03:33:28;;;;;;;8.70;4.43;;;;;;;9.48;100.00;98173.41;4484838;31;20406;-72
2022/05/30 03:35:55;;;;;;;7.70;4.40;;;;;;;9.52;100.00;98172.16;4485095;31;20436;-72
2022/05/30 03:38:24;;;;;;;6.82;4.05;;;;;;;9.54;100.00;98166.78;4484857;32;20477;-72
2022/05/30 03:40:54;;;;;;;5.80;3.45;;;;;;;9.55;100.00;98158.78;4484876;31;20511;-72
2022/05/30 03:43:25;;;;;;;6.85;3.40;;;;;;;9.55;100.00;98165.78;4484807;31;20112;-72
2022/05/30 03:45:59;;;;;;;6.20;3.45;;;;;;;9.59;100.00;98162.75;4485074;31;20151;-72
2022/05/30 03:48:26;;;;;;;5.90;3.30;;;;;;;9.62;100.00;98164.25;4483548;32;20443;-72
2022/05/30 03:50:54;;;;;;;7.72;3.87;;;;;;;9.66;100.00;98167.38;4484942;31;20096;-72
2022/05/30 03:53:21;;;;;;;7.95;3.50;;;;;;;9.72;100.00;98170.25;4484844;31;20167;-72
2022/05/30 03:55:49;;;;;;;7.45;3.72;;;;;;;9.72;100.00;98170.25;4484492;32;20096;-72
2022/05/30 03:58:17;;;;;;;7.60;3.28;;;;;;;9.79;100.00;98169.66;4484889;32;20084;-72
2022/05/30 04:00:44;;;;;;;5.85;3.05;;;;;;;9.79;100.00;98169.66;4484735;31;20131;-72
2022/05/30 04:03:13;;;;;;;9.60;3.75;;;;;;;9.84;100.00;98190.97;4481228;31;20100;-72
2022/05/30 04:05:40;;;;;;;5.93;3.15;;;;;;;9.87;100.00;98186.28;4483123;32;20087;-72
2022/05/30 04:08:08;;;;;;;5.28;3.50;;;;;;;9.90;100.00;98182.53;4463591;31;537904;-72
2022/05/30 04:10:37;;;;;;;6.47;3.80;;;;;;;9.95;100.00;98175.88;4483400;31;20410;-72
2022/05/30 04:13:07;;;;;;;5.57;3.33;;;;;;;10.00;100.00;98170.22;4483947;31;20152;-72
2022/05/30 04:15:38;;;;;;;6.17;3.57;;;;;;;10.05;100.00;98170.59;4485662;31;20092;-72
2022/05/30 04:18:06;;;;;;;7.47;3.37;;;;;;;10.07;100.00;98173.88;4485594;31;20104;-72
2022/05/30 04:20:33;;;;;;;5.07;3.33;;;;;;;10.13;100.00;98177.72;4480654;31;20707;-72
2022/05/30 04:23:00;;;;;;;6.65;3.85;;;;;;;10.17;100.00;98191.31;4484693;31;20101;-72
2022/05/30 04:25:28;;;;;;;7.93;3.42;;;;;;;10.22;100.00;98191.69;4483853;31;20181;-72
2022/05/30 04:27:56;;;;;;;8.10;4.05;;;;;;;10.31;100.00;98193.44;4483931;31;20096;-72
2022/05/30 04:30:23;;;;;;;5.30;3.55;;;;;;;10.32;100.00;98186.37;4479849;31;20818;-72
2022/05/30 04:32:51;;;;;;;7.60;3.47;;;;;;;10.42;100.00;98197.63;4481834;31;20100;-72
2022/05/30 04:35:19;;;;;;;6.07;3.15;;;;;;;10.40;100.00;98195.16;4483439;32;20164;-72
2022/05/30 04:37:47;;;;;;;5.80;3.30;;;;;;;10.51;100.00;98198.50;4484215;31;20126;-72
2022/05/30 04:40:18;;;;;;;7.32;2.90;;;;;;;10.47;100.00;98198.81;4484776;31;20609;-73
2022/05/30 04:42:58;;;;;;;4.57;3.30;;;;;;;10.58;100.00;98210.87;4484763;32;20084;-73
2022/05/30 04:45:29;;;;;;;8.15;3.00;;;;;;;10.64;100.00;98204.19;4480874;32;20171;-73
2022/05/30 04:47:56;;;;;;;5.18;2.85;;;;;;;10.75;99.76;98203.13;4484599;31;20522;-73
2022/05/30 04:50:24;;;;;;;4.57;3.33;;;;;;;10.78;99.50;98201.03;4479197;32;20191;-73
2022/05/30 04:52:51;;;;;;;4.12;3.15;;;;;;;10.83;99.59;98200.59;4482685;31;20119;-73
2022/05/30 04:55:21;;;;;;;4.78;3.35;;;;;;;10.86;99.76;98210.75;4481224;32;20096;-73
2022/05/30 04:57:50;;;;;;;5.30;2.95;;;;;;;10.96;98.46;98206.25;4479691;32;20112;-73
2022/05/30 05:00:20;;;;;;;5.95;3.03;;;;;;;11.01;96.98;98205.78;4479448;32;20160;-73
2022/05/30 05:02:48;;;;;;;6.45;3.60;;;;;;;11.08;97.43;98201.59;4481842;31;20101;-74
2022/05/30 05:05:15;;;;;;;8.57;3.05;;;;;;;11.18;97.15;98217.19;4479442;31;20092;-73
2022/05/30 05:08:08;;;;;;;4.07;2.80;;;;;;;11.26;96.24;98221.66;4482359;31;20460;-73
2022/05/30 05:10:57;;;;;;;3.92;2.53;;;;;;;11.30;95.25;98223.00;4482032;31;20180;-73
2022/05/30 05:13:26;;;;;;;4.45;2.30;;;;;;;11.36;95.61;98220.56;4476877;32;20142;-73
2022/05/30 05:15:56;;;;;;;4.78;2.83;;;;;;;11.33;95.12;98217.44;4482987;31;20088;-74
2022/05/30 05:18:24;;;;;;;5.95;3.00;;;;;;;11.41;93.81;98229.78;4478871;31;21880;-74
2022/05/30 05:20:51;;;;;;;4.40;2.65;;;;;;;11.45;93.91;98224.06;4479413;32;20108;-74
2022/05/30 05:23:18;;;;;;;10.57;2.67;;;;;;;11.50;94.79;98239.34;4481323;32;20449;-74
2022/05/30 05:25:46;;;;;;;4.35;3.15;;;;;;;11.66;94.36;98244.66;4480377;32;20390;-74
2022/05/30 05:28:18;;;;;;;6.18;3.70;;;;;;;11.64;92.72;98240.53;4483299;31;20091;-74
2022/05/30 05:30:45;;;;;;;7.40;3.60;;;;;;;11.70;93.39;98240.75;4474734;32;20150;-74
2022/05/30 05:33:12;;;;;;;7.53;3.12;;;;;;;11.85;93.70;98248.87;4482320;32;20545;-74
2022/05/30 05:35:41;;;;;;;3.42;2.90;;;;;;;11.92;92.50;98235.91;4479011;32;20183;-74
2022/05/30 05:38:09;;;;;;;3.00;2.47;;;;;;;12.09;92.46;98246.50;4479799;32;20108;-74
2022/05/30 05:40:46;;;;;;;3.47;2.72;;;;;;;12.20;89.77;98252.28;4479855;32;20169;-74
2022/05/30 05:43:14;;;;;;;6.57;2.92;;;;;;;12.21;90.11;98255.72;4476896;31;20563;-74
2022/05/30 05:45:43;;;;;;;5.03;2.62;;;;;;;12.40;89.20;98265.13;4482581;32;20124;-73
2022/05/30 05:48:10;;;;;;;3.50;2.45;;;;;;;12.45;88.80;98262.03;4483245;31;20197;-74
2022/05/30 05:50:39;;;;;;;5.47;3.90;;;;;;;12.65;88.34;98259.91;4477589;31;20104;-73
2022/05/30 05:53:08;;;;;;;5.68;3.05;;;;;;;12.93;86.67;98263.87;4476890;31;20096;-74
2022/05/30 05:55:38;;;;;;;5.85;2.60;;;;;;;12.92;84.56;98270.09;4480569;32;20166;-73
2022/05/30 05:58:06;;;;;;;4.00;2.50;;;;;;;13.10;85.12;98282.28;4483296;31;20131;-74
2022/05/30 06:00:33;;;;;;;4.95;2.50;;;;;;;13.10;83.25;98279.63;4471004;31;20146;-73
2022/05/30 06:03:02;;;;;;;5.22;2.78;;;;;;;13.11;84.33;98276.84;4474464;31;20100;-73
2022/05/30 06:05:31;;;;;;;11.82;3.15;;;;;;;13.19;82.04;98281.28;4481595;32;20465;-73
2022/05/30 06:08:05;;;;;;;3.78;2.33;;;;;;;13.12;81.50;98283.72;4483608;31;20093;-73
2022/05/30 06:11:04;;;;;;;4.28;2.87;;;;;;;13.06;83.29;98280.94;4477306;31;20224;-72
2022/05/30 06:13:20;;;;;;;6.22;3.30;;;;;;;12.93;81.52;98278.81;4478523;32;20122;-72
2022/05/30 06:15:47;;;;;;;7.97;2.75;;;;;;;13.00;83.05;98278.97;4481539;31;20082;-73
2022/05/30 06:18:14;;;;;;;6.20;2.92;;;;;;;13.37;82.35;98275.00;4481167;32;20116;-73
2022/05/30 06:20:42;;;;;;;4.03;2.58;;;;;;;13.32;78.76;98284.22;4479289;32;20096;-73
2022/05/30 06:23:10;;;;;;;3.67;2.72;;;;;;;13.45;79.35;98289.00;4481148;31;20096;-73
2022/05/30 06:25:41;;;;;;;5.53;2.90;;;;;;;13.41;78.02;98297.38;4482206;32;20108;-73
2022/05/30 06:28:14;;;;;;;3.53;2.62;;;;;;;13.40;78.20;98301.84;4481418;31;20151;-73
2022/05/30 06:30:41;;;;;;;3.92;2.50;;;;;;;13.72;78.62;98296.69;4482151;31;20476;-74
2022/05/30 06:33:08;;;;;;;3.12;2.47;;;;;;;13.78;78.72;98294.19;4479932;31;20171;-73
2022/05/30 06:35:42;;;;;;;6.70;3.03;;;;;;;13.87;75.97;98302.88;4479387;32;20135;-73
2022/05/30 06:38:12;;;;;;;8.35;2.53;;;;;;;13.88;75.88;98307.13;4481621;32;20093;-75
2022/05/30 06:40:42;;;;;;;3.28;2.05;;;;;;;13.84;74.93;98308.47;4458724;32;20100;-72
2022/05/30 06:43:11;;;;;;;3.58;2.22;;;;;;;13.64;73.80;98306.22;4482701;31;21027;-72
2022/05/30 06:45:46;;;;;;;6.03;2.50;;;;;;;13.54;73.75;98308.22;4485282;31;20099;-73
2022/05/30 06:48:18;;;;;;;4.45;2.30;;;;;;;13.66;73.57;98311.31;4473463;31;20546;-73
2022/05/30 06:50:47;;;;;;;2.62;2.10;;;;;;;13.92;73.31;98316.34;4478407;32;20093;-72
2022/05/30 06:53:14;;;;;;;4.18;2.33;;;;;;;14.03;71.59;98312.50;4478954;31;20546;-74
2022/05/30 06:55:41;;;;;;;2.83;1.98;;;;;;;14.41;70.82;98317.94;4482567;31;20582;-72
2022/05/30 06:58:14;;;;;;;5.95;2.30;;;;;;;14.81;67.41;98315.28;4479229;32;20100;-74
2022/05/30 07:00:44;;;;;;;2.37;1.73;;;;;;;14.88;67.90;98308.28;4482469;32;20112;-75
2022/05/30 07:03:17;;;;;;;2.47;1.60;;;;;;;14.83;67.32;98316.72;4479295;32;20978;-74
2022/05/30 07:05:46;;;;;;;1.98;1.33;;;;;;;14.80;64.78;98311.81;4478671;31;20489;-74
2022/05/30 07:08:16;;;;;;;2.50;1.67;;;;;;;14.93;63.67;98311.25;4486099;31;20789;-75
2022/05/30 07:10:44;;;;;;;4.05;1.67;;;;;;;15.23;63.07;98313.94;4484142;31;20099;-76
2022/05/30 07:13:12;;;;;;;2.97;1.83;;;;;;;15.30;64.52;98309.59;4481070;31;20115;-75
2022/05/30 07:15:40;;;;;;;3.40;1.73;;;;;;;15.05;65.47;98311.66;4480917;32;20155;-75
2022/05/30 07:18:13;;;;;;;5.80;2.05;;;;;;;15.07;63.53;98313.09;4475363;31;20162;-74
2022/05/30 07:20:41;;;;;;;4.93;2.17;;;;;;;15.11;64.39;98312.75;4481516;32;20171;-73
2022/05/30 07:23:10;;;;;;;3.35;1.70;;;;;;;15.04;64.68;98305.53;4482052;32;20191;-74
2022/05/30 07:25:41;;;;;;;2.47;1.50;;;;;;;15.22;64.34;98301.78;4481493;31;20109;-78
2022/05/30 07:28:12;;;;;;;3.12;1.30;;;;;;;15.58;62.53;98304.56;4474615;31;20175;-75
2022/05/30 07:30:49;;;;;;;2.10;1.55;;;;;;;15.71;60.89;98305.75;4449174;31;20084;-74
2022/05/30 07:33:31;;;;;;;2.55;1.45;;;;;;;15.98;59.63;98309.59;4481455;31;20104;-75
2022/05/30 07:36:14;;;;;;;2.22;1.45;;;;;;;16.07;60.29;98299.78;4482969;31;20470;-75
2022/05/30 07:38:42;;;;;;;4.35;2.17;;;;;;;16.59;61.40;98303.22;4486985;31;20151;-74
2022/05/30 07:41:10;;;;;;;4.30;1.80;;;;;;;17.08;59.04;98305.16;4483434;32;20165;-75
2022/05/30 07:43:38;;;;;;;3.28;1.60;;;;;;;17.39;55.65;98303.97;4487172;31;20092;-75
2022/05/30 07:46:10;;;;;;;1.95;1.23;;;;;;;17.38;53.65;98307.59;4483076;31;20120;-74
2022/05/30 07:48:38;;;;;;;2.42;1.23;;;;;;;17.41;53.12;98309.06;4480538;32;20080;-72
2022/05/30 07:51:06;;;;;;;3.58;1.10;;;;;;;17.45;52.22;98302.37;4482829;31;20152;-72
2022/05/30 07:53:35;;;;;;;2.45;1.62;;;;;;;17.41;54.58;98307.25;4483448;32;20096;-73
2022/05/30 07:56:08;;;;;;;5.07;1.83;;;;;;;17.29;52.32;98314.06;4480150;32;20092;-73
2022/05/30 07:58:39;;;;;;;2.20;1.67;;;;;;;17.09;51.93;98306.75;4480551;31;20173;-72
2022/05/30 08:01:12;;;;;;;3.75;1.27;;;;;;;17.17;52.67;98306.66;4474666;31;20299;-72
2022/05/30 08:03:41;;;;;;;2.12;1.23;;;;;;;17.24;55.34;98303.25;4478922;31;20092;-73
2022/05/30 08:06:18;;;;;;;4.28;1.40;;;;;;;17.10;55.08;98315.53;4463272;32;20570;-73
2022/05/30 08:08:59;;;;;;;2.83;1.50;;;;;;;16.96;54.63;98319.91;4485436;31;20092;-73
2022/05/30 08:11:26;;;;;;;6.40;1.20;;;;;;;17.16;52.67;98310.28;4482965;31;20156;-73
2022/05/30 08:13:55;;;;;;;5.60;1.48;;;;;;;16.88;53.23;98315.56;4481197;32;20771;-73
2022/05/30 08:16:25;;;;;;;1.85;1.45;;;;;;;17.22;52.23;98321.16;4483862;32;20454;-72
2022/05/30 08:19:12;;;;;;;3.60;1.52;;;;;;;17.24;53.29;98327.06;4482073;32;20100;-74
2022/05/30 08:22:04;;;;;;;2.28;1.20;;;;;;;17.48;51.25;98326.63;4481725;31;20096;-72
2022/05/30 08:24:53;;;;;;;1.83;1.27;;;;;;;17.59;51.72;98332.41;4478413;31;20160;-73
2022/05/30 08:27:21;;;;;;;5.32;2.33;;;;;;;17.18;52.52;98341.88;4481354;32;20104;-73
2022/05/30 08:29:48;;;;;;;3.08;1.37;;;;;;;17.28;53.97;98339.72;4480252;31;20092;-72
2022/05/30 08:32:16;;;;;;;18.33;2.45;;;;;;;17.96;53.21;98351.66;4479017;31;20849;-73
2022/05/30 08:34:45;;;;;;;1.90;1.12;;;;;;;17.99;50.91;98348.63;4480061;32;20122;-73
2022/05/30 08:37:12;;;;;;;3.45;1.20;;;;;;;18.47;48.68;98330.06;4481572;32;20152;-73
2022/05/30 08:42:30;;;;;;;2.83;1.15;;;;;;;19.36;47.51;98311.44;4481302;32;20124;-73
2022/05/30 08:45:09;;;;;;;1.45;1.23;;;;;;;19.44;46.86;98313.88;4479161;32;20092;-73
2022/05/30 08:47:55;;;;;;;2.25;1.15;;;;;;;18.89;47.48;98325.50;4477584;31;20100;-72
2022/05/30 08:50:31;;;;;;;2.50;1.17;;;;;;;18.53;47.46;98326.63;4482192;31;22061;-72
2022/05/30 08:53:17;;;;;;;4.55;1.30;;;;;;;19.01;46.34;98317.75;4481450;31;20100;-72
2022/05/30 08:55:51;;;;;;;3.90;1.33;;;;;;;19.10;46.25;98329.00;4479966;32;20146;-72
2022/05/30 08:58:53;;;;;;;2.87;1.20;;;;;;;19.16;47.68;98333.50;4483163;32;20088;-72
2022/05/30 09:01:27;;;;;;;3.92;1.37;;;;;;;19.11;47.32;98346.59;4434558;32;20113;-72
2022/05/30 09:04:09;;;;;;;2.35;1.20;;;;;;;18.76;47.50;98338.72;4421025;32;20113;-72
2022/05/30 09:06:48;;;;;;;3.53;1.30;;;;;;;19.44;46.97;98351.06;4415604;32;20102;-72
2022/05/30 09:09:24;;;;;;;4.32;1.65;;;;;;;19.14;45.90;98339.00;4417984;32;20124;-72
2022/05/30 09:12:14;;;;;;;3.95;1.42;;;;;;;18.90;46.95;98345.72;4431759;32;21036;-72
2022/05/30 09:14:53;;;;;;;8.95;1.60;;;;;;;18.66;46.25;98351.56;4428683;32;20197;-71
2022/05/30 09:17:43;;;;;;;3.28;1.40;;;;;;;18.80;46.97;98356.69;4432164;32;20097;-71
2022/05/30 09:20:17;;;;;;;2.45;1.30;;;;;;;18.41;46.29;98358.19;4427050;32;20101;-71
2022/05/30 09:22:45;;;;;;;;;;;;;;;18.43;47.48;98364.13;4416076;32;20156;-70
2022/05/30 09:28:05;;;;;;;2.80;1.40;;;;;;;18.62;47.87;98367.03;4429346;32;20105;-71
2022/05/30 09:31:00;;;;;;;3.15;1.30;;;;;;;18.60;47.75;98364.59;4429027;32;20227;-71
2022/05/30 09:33:35;;;;;;;5.43;1.70;;;;;;;18.40;48.30;98358.41;4372527;32;20110;-71
2022/05/30 09:36:18;;;;;;;4.65;1.40;;;;;;;18.48;48.29;98347.59;4378766;32;20099;-71
2022/05/30 09:38:49;;;;;;;4.00;1.25;;;;;;;18.52;47.35;98356.81;4418327;32;20131;-71
2022/05/30 09:41:24;;;;;;;8.63;1.55;;;;;;;18.28;48.40;98352.84;4423494;32;20101;-71
2022/05/30 09:43:56;;;;;;;4.87;1.60;;;;;;;18.44;47.34;98360.47;4417332;32;22129;-71
2022/05/30 09:46:38;;;;;;;4.95;1.85;;;;;;;18.49;46.73;98367.81;4433649;32;20424;-71
2022/05/30 09:49:26;;;;;;;5.30;1.42;;;;;;;18.46;47.35;98370.06;4420463;32;20097;-71
2022/05/30 09:52:02;;;;;;;3.95;1.10;;;;;;;18.50;47.59;98380.06;4430884;32;20445;-71
2022/05/30 09:54:37;;;;;;;2.05;0.90;;;;;;;18.84;46.25;98366.91;4416444;32;20179;-71
2022/05/30 09:57:16;;;;;;;2.97;1.52;;;;;;;19.09;45.85;98373.34;4430891;32;20147;-71
2022/05/30 09:59:49;;;;;;;3.65;1.23;;;;;;;19.35;44.86;98365.56;4420665;32;20533;-71
2022/05/30 10:02:29;;;;;;;4.65;1.75;;;;;;;19.47;46.49;98372.75;4433820;32;20164;-71
2022/05/30 10:05:04;;;;;;;3.12;1.23;;;;;;;19.10;46.08;98382.09;4419584;32;20127;-71
2022/05/30 10:07:35;;;;;;;4.62;1.40;;;;;;;18.91;46.44;98386.34;4434454;32;20110;-71
2022/05/30 10:10:13;;;;;;;2.47;1.50;;;;;;;19.33;45.24;98373.75;4446230;32;20146;-71
2022/05/30 10:12:52;;;;;;;3.85;1.20;;;;;;;19.27;43.98;98370.09;4480460;32;20099;-72
2022/05/30 10:15:25;;;;;;;3.30;1.27;;;;;;;19.66;44.74;98372.94;4480694;32;20096;-73
2022/05/30 10:17:56;;;;;;;1.87;1.12;;;;;;;18.98;45.35;98371.25;4483698;32;20146;-73
2022/05/30 10:20:36;;;;;;;1.60;1.20;;;;;;;19.10;46.40;98374.12;4480837;32;20092;-72
2022/05/30 10:29:02;;;;;;;2.17;1.25;;;;;;;19.36;44.27;98378.66;4481576;32;20166;-73
2022/05/30 10:32:12;;;;;;;2.72;1.23;;;;;;;18.79;45.40;98384.25;4482403;32;20130;-72
2022/05/30 10:35:12;;;;;;;2.65;1.42;;;;;;;18.94;45.84;98389.44;4423528;32;20660;-72
2022/05/30 10:37:58;;;;;;;3.42;1.30;;;;;;;18.39;46.29;98399.19;4435142;32;20214;-71
2022/05/30 10:40:43;;;;;;;2.70;1.37;;;;;;;18.32;46.45;98398.31;4435277;32;20489;-71
2022/05/30 10:43:37;;;;;;;1.98;1.08;;;;;;;18.20;46.40;98392.78;4429160;32;20128;-73
2022/05/30 10:46:10;;;;;;;2.45;1.30;;;;;;;18.07;47.17;98401.47;4420854;32;20107;-70
2022/05/30 10:48:43;;;;;;;3.17;1.15;;;;;;;18.17;46.73;98390.50;4419503;32;20109;-71
2022/05/30 10:51:14;;;;;;;7.65;2.12;;;;;;;18.75;45.94;98388.31;4419215;32;20280;-70
2022/05/30 10:53:51;;;;;;;5.03;1.12;;;;;;;19.16;44.91;98386.59;4434665;32;20105;-71
2022/05/30 10:56:36;;;;;;;5.20;1.60;;;;;;;19.08;46.62;98392.13;4441932;32;20592;-70
2022/05/30 10:59:10;;;;;;;3.33;1.67;;;;;;;18.88;47.11;98395.53;4435699;32;21985;-71
2022/05/30 11:01:42;;;;;;;4.78;1.35;;;;;;;18.99;46.45;98409.25;4422082;32;20186;-70
2022/05/30 11:04:19;;;;;;;8.13;3.78;;;;;;;19.25;45.63;98400.53;4433989;32;20132;-71
2022/05/30 11:06:49;;;;;;;4.12;1.42;;;;;;;19.64;44.27;98412.19;4436927;32;20120;-71
2022/05/30 11:09:28;;;;;;;2.20;1.10;;;;;;;19.35;44.95;98416.03;4469801;31;20104;-70
2022/05/30 11:12:20;;;;;;;3.08;1.30;;;;;;;19.02;44.88;98420.28;4481601;31;20133;-71
2022/05/30 11:15:16;;;;;;;1.87;1.10;;;;;;;18.92;45.47;98425.94;4473833;31;20577;-70
2022/05/30 11:18:35;;;;;;;6.32;2.97;;;;;;;18.83;45.30;98427.12;4483054;31;20122;-70
2022/05/30 11:21:13;;;;;;;1.75;1.15;;;;;;;18.72;46.35;98433.81;4484917;31;20783;-71
2022/05/30 11:23:41;;;;;;;1.92;1.08;;;;;;;18.60;47.24;98436.22;4488527;31;20093;-71
2022/05/30 11:26:48;;;;;;;7.28;1.42;;;;;;;18.81;46.77;98437.13;4483972;31;20659;-69
2022/05/30 11:29:33;;;;;;;3.22;1.50;;;;;;;18.43;46.40;98422.47;4419587;32;20135;-70
2022/05/30 11:32:09;;;;;;;;;;;;;;;18.02;47.46;98423.25;4415289;32;20132;-69
2022/05/30 11:35:01;;;;;;;4.57;1.20;;;;;;;18.31;47.97;98417.94;4418416;32;20343;-70
2022/05/30 11:37:28;;;;;;;3.83;1.60;;;;;;;18.24;47.03;98418.72;4418008;32;20133;-69
2022/05/30 11:40:04;;;;;;;3.65;1.58;;;;;;;18.44;47.08;98420.66;4418417;32;20549;-70
2022/05/30 11:42:38;;;;;;;2.72;1.05;;;;;;;18.23;46.45;98416.25;4418999;32;20443;-70
2022/05/30 11:45:30;;;;;;;1.85;1.30;;;;;;;18.65;45.56;98416.25;4418957;32;20121;-69
2022/05/30 11:48:35;;;;;;;2.20;1.12;;;;;;;18.29;46.38;98417.28;4419463;32;20110;-69
2022/05/30 11:51:09;;;;;;;1.60;1.12;;;;;;;18.63;46.10;98421.75;4415700;32;20121;-70
2022/05/30 11:54:03;;;;;;;3.45;1.40;;;;;;;19.29;43.97;98410.53;4412599;32;20198;-69
2022/05/30 11:57:06;;;;;;;2.97;1.42;;;;;;;19.15;44.01;98408.84;4418302;32;20114;-69
2022/05/30 12:00:04;;;;;;;2.03;1.33;;;;;;;18.84;44.20;98423.47;4409045;32;20136;-70
2022/05/30 12:03:16;;;;;;;2.45;1.20;;;;;;;18.89;45.90;98431.66;4405441;32;20127;-69
2022/05/30 12:05:46;;;;;;;3.08;1.20;;;;;;;18.83;45.17;98427.12;4433605;32;20191;-70
2022/05/30 12:08:31;;;;;;;2.25;1.12;;;;;;;18.80;44.54;98416.91;4482986;31;20509;-71
2022/05/30 12:11:28;;;;;;;2.12;1.30;;;;;;;19.00;43.59;98410.88;4480759;31;20100;-71
2022/05/30 12:13:55;;;;;;;1.85;1.20;;;;;;;18.71;45.47;98412.78;4416461;32;20746;-71
2022/05/30 12:16:37;;;;;;;3.53;1.33;;;;;;;18.68;45.09;98426.44;4416285;32;20126;-70
2022/05/30 12:24:57;;;;;;;2.35;1.10;;;;;;;19.32;43.86;98415.44;4398916;32;20098;-70
2022/05/30 12:27:30;;;;;;;3.78;1.20;;;;;;;19.14;44.03;98407.25;4415932;32;20554;-70
2022/05/30 12:29:59;;;;;;;2.58;1.17;;;;;;;19.37;43.24;98409.53;4417387;32;20149;-71